sensor_id;sensor_type;location;lat;lon;timestamp;pressure;altitude;pressure_sealevel;temperature;humidity
22649;BME280;11491;41.942;24.220;2023-04-29T00:02:16;89932.59;;;2.59;78.56
22649;BME280;11491;41.942;24.220;2023-04-29T00:04:43;89933.66;;;2.72;78.29
22649;BME280;11491;41.942;24.220;2023-04-29T00:07:10;89924.28;;;2.52;79.08
22649;BME280;11491;41.942;24.220;2023-04-29T00:09:39;89916.16;;;2.62;77.22
22649;BME280;11491;41.942;24.220;2023-04-29T00:12:06;89924.94;;;2.71;76.70
22649;BME280;11491;41.942;24.220;2023-04-29T00:14:34;89917.25;;;2.61;77.37
22649;BME280;11491;41.942;24.220;2023-04-29T00:17:02;89921.91;;;2.50;78.21
22649;BME280;11491;41.942;24.220;2023-04-29T00:19:29;89921.03;;;2.55;77.99
22649;BME280;11491;41.942;24.220;2023-04-29T00:21:56;89916.84;;;2.54;77.70
22649;BME280;11491;41.942;24.220;2023-04-29T00:24:23;89884.69;;;2.38;77.50
22649;BME280;11491;41.942;24.220;2023-04-29T00:26:49;89909.44;;;2.56;77.12
22649;BME280;11491;41.942;24.220;2023-04-29T00:29:16;89908.16;;;2.40;77.73
22649;BME280;11491;41.942;24.220;2023-04-29T00:31:43;89909.41;;;2.28;78.22
22649;BME280;11491;41.942;24.220;2023-04-29T00:34:12;89908.84;;;2.31;78.40
22649;BME280;11491;41.942;24.220;2023-04-29T00:36:38;89914.69;;;2.14;79.81
22649;BME280;11491;41.942;24.220;2023-04-29T00:39:05;89919.97;;;2.28;79.92
22649;BME280;11491;41.942;24.220;2023-04-29T00:41:32;89911.38;;;2.36;79.66
22649;BME280;11491;41.942;24.220;2023-04-29T00:43:59;89918.13;;;2.43;79.52
22649;BME280;11491;41.942;24.220;2023-04-29T00:46:25;89916.47;;;2.47;79.15
22649;BME280;11491;41.942;24.220;2023-04-29T00:48:52;89923.09;;;2.44;78.33
22649;BME280;11491;41.942;24.220;2023-04-29T00:51:21;89915.88;;;2.50;77.23
22649;BME280;11491;41.942;24.220;2023-04-29T00:53:48;89912.72;;;2.48;78.27
22649;BME280;11491;41.942;24.220;2023-04-29T00:56:14;89915.09;;;2.22;78.66
22649;BME280;11491;41.942;24.220;2023-04-29T00:58:42;89921.72;;;2.05;79.31
22649;BME280;11491;41.942;24.220;2023-04-29T01:01:14;89927.00;;;2.19;79.25
22649;BME280;11491;41.942;24.220;2023-04-29T01:03:41;89926.22;;;2.32;78.95
22649;BME280;11491;41.942;24.220;2023-04-29T01:06:13;89920.94;;;2.32;78.98
22649;BME280;11491;41.942;24.220;2023-04-29T01:09:04;89913.13;;;2.27;78.14
22649;BME280;11491;41.942;24.220;2023-04-29T01:11:34;89920.94;;;2.32;77.83
22649;BME280;11491;41.942;24.220;2023-04-29T01:14:05;89920.44;;;2.30;77.47
22649;BME280;11491;41.942;24.220;2023-04-29T01:16:36;89909.56;;;1.90;79.07
22649;BME280;11491;41.942;24.220;2023-04-29T01:19:15;89924.25;;;1.97;79.49
22649;BME280;11491;41.942;24.220;2023-04-29T01:21:46;89917.03;;;2.02;78.64
22649;BME280;11491;41.942;24.220;2023-04-29T01:24:15;89916.44;;;1.91;79.77
22649;BME280;11491;41.942;24.220;2023-04-29T01:26:50;89904.28;;;1.90;79.94
22649;BME280;11491;41.942;24.220;2023-04-29T01:29:26;89899.78;;;1.77;80.80
22649;BME280;11491;41.942;24.220;2023-04-29T01:32:03;89909.56;;;1.90;80.48
22649;BME280;11491;41.942;24.220;2023-04-29T01:34:36;89911.53;;;1.99;78.96
22649;BME280;11491;41.942;24.220;2023-04-29T01:37:13;89907.44;;;1.92;79.61
22649;BME280;11491;41.942;24.220;2023-04-29T01:39:50;89914.06;;;1.90;79.12
22649;BME280;11491;41.942;24.220;2023-04-29T01:42:23;89909.78;;;1.94;78.44
22649;BME280;11491;41.942;24.220;2023-04-29T01:44:54;89905.66;;;1.88;78.51
22649;BME280;11491;41.942;24.220;2023-04-29T01:47:23;89906.53;;;1.83;78.89
22649;BME280;11491;41.942;24.220;2023-04-29T01:49:50;89909.34;;;1.73;79.79
22649;BME280;11491;41.942;24.220;2023-04-29T01:52:17;89901.94;;;1.75;80.35
22649;BME280;11491;41.942;24.220;2023-04-29T01:54:44;89890.31;;;1.76;79.31
22649;BME280;11491;41.942;24.220;2023-04-29T01:57:12;89895.09;;;1.74;79.71
22649;BME280;11491;41.942;24.220;2023-04-29T01:59:39;89895.66;;;1.71;80.40
22649;BME280;11491;41.942;24.220;2023-04-29T02:02:06;89897.81;;;1.69;78.89
22649;BME280;11491;41.942;24.220;2023-04-29T02:04:33;89899.56;;;1.73;79.04
22649;BME280;11491;41.942;24.220;2023-04-29T02:06:59;89890.38;;;1.57;79.89
22649;BME280;11491;41.942;24.220;2023-04-29T02:09:27;89891.09;;;1.44;80.15
22649;BME280;11491;41.942;24.220;2023-04-29T02:11:54;89901.38;;;1.45;80.90
22649;BME280;11491;41.942;24.220;2023-04-29T02:14:22;89896.00;;;1.50;81.49
22649;BME280;11491;41.942;24.220;2023-04-29T02:16:49;89889.03;;;1.60;81.46
22649;BME280;11491;41.942;24.220;2023-04-29T02:19:16;89897.09;;;1.49;81.06
22649;BME280;11491;41.942;24.220;2023-04-29T02:21:42;89895.50;;;1.48;81.72
22649;BME280;11491;41.942;24.220;2023-04-29T02:24:10;89894.03;;;1.42;81.30
22649;BME280;11491;41.942;24.220;2023-04-29T02:26:36;89892.16;;;1.62;79.62
22649;BME280;11491;41.942;24.220;2023-04-29T02:29:03;89895.25;;;1.64;78.93
22649;BME280;11491;41.942;24.220;2023-04-29T02:31:31;89890.56;;;1.47;79.55
22649;BME280;11491;41.942;24.220;2023-04-29T02:33:58;89898.19;;;1.62;78.83
22649;BME280;11491;41.942;24.220;2023-04-29T02:36:25;89897.66;;;1.46;79.03
22649;BME280;11491;41.942;24.220;2023-04-29T02:38:52;89867.38;;;1.30;79.68
22649;BME280;11491;41.942;24.220;2023-04-29T02:41:20;89895.00;;;1.46;79.56
22649;BME280;11491;41.942;24.220;2023-04-29T02:43:47;89896.34;;;1.30;80.08
22649;BME280;11491;41.942;24.220;2023-04-29T02:46:14;89880.13;;;1.23;81.40
22649;BME280;11491;41.942;24.220;2023-04-29T02:48:42;89890.91;;;1.40;79.56
22649;BME280;11491;41.942;24.220;2023-04-29T02:51:09;89897.53;;;1.38;80.06
22649;BME280;11491;41.942;24.220;2023-04-29T02:53:36;89890.41;;;1.38;79.96
22649;BME280;11491;41.942;24.220;2023-04-29T02:56:03;89898.47;;;1.28;80.70
22649;BME280;11491;41.942;24.220;2023-04-29T02:58:31;89897.44;;;1.10;82.05
22649;BME280;11491;41.942;24.220;2023-04-29T03:00:57;89896.50;;;1.20;82.11
22649;BME280;11491;41.942;24.220;2023-04-29T03:03:24;89893.63;;;1.16;82.63
22649;BME280;11491;41.942;24.220;2023-04-29T03:05:52;89898.66;;;1.32;80.97
22649;BME280;11491;41.942;24.220;2023-04-29T03:08:19;89892.47;;;1.41;79.79
22649;BME280;11491;41.942;24.220;2023-04-29T03:10:46;89898.31;;;1.38;79.79
22649;BME280;11491;41.942;24.220;2023-04-29T03:13:13;89893.03;;;1.38;79.38
22649;BME280;11491;41.942;24.220;2023-04-29T03:15:39;89894.81;;;1.43;79.54
22649;BME280;11491;41.942;24.220;2023-04-29T03:18:08;89894.63;;;1.39;79.23
22649;BME280;11491;41.942;24.220;2023-04-29T03:20:35;89902.03;;;1.37;80.57
22649;BME280;11491;41.942;24.220;2023-04-29T03:23:03;89888.53;;;1.25;80.67
22649;BME280;11491;41.942;24.220;2023-04-29T03:25:30;89898.13;;;1.35;79.96
22649;BME280;11491;41.942;24.220;2023-04-29T03:27:56;89899.31;;;1.42;78.70
22649;BME280;11491;41.942;24.220;2023-04-29T03:30:23;89901.44;;;1.40;78.86
22649;BME280;11491;41.942;24.220;2023-04-29T03:32:50;89898.53;;;1.42;78.42
22649;BME280;11491;41.942;24.220;2023-04-29T03:35:17;89900.28;;;1.46;78.72
22649;BME280;11491;41.942;24.220;2023-04-29T03:37:43;89900.69;;;1.40;78.68
22649;BME280;11491;41.942;24.220;2023-04-29T03:40:12;89896.19;;;1.40;79.08
22649;BME280;11491;41.942;24.220;2023-04-29T03:42:39;89899.91;;;1.39;79.67
22649;BME280;11491;41.942;24.220;2023-04-29T03:45:07;89903.59;;;1.38;80.84
22649;BME280;11491;41.942;24.220;2023-04-29T03:47:35;89902.75;;;1.24;81.56
22649;BME280;11491;41.942;24.220;2023-04-29T03:50:01;89902.28;;;1.22;81.93
22649;BME280;11491;41.942;24.220;2023-04-29T03:52:28;89916.97;;;1.42;80.98
22649;BME280;11491;41.942;24.220;2023-04-29T03:54:55;89906.72;;;1.40;80.72
22649;BME280;11491;41.942;24.220;2023-04-29T03:57:23;89916.47;;;1.40;80.87
22649;BME280;11491;41.942;24.220;2023-04-29T03:59:50;89918.38;;;1.34;81.40
22649;BME280;11491;41.942;24.220;2023-04-29T04:02:16;89920.56;;;1.32;81.40
22649;BME280;11491;41.942;24.220;2023-04-29T04:04:43;89920.41;;;1.42;80.50
22649;BME280;11491;41.942;24.220;2023-04-29T04:07:10;89922.69;;;1.30;81.64
22649;BME280;11491;41.942;24.220;2023-04-29T04:09:37;89930.09;;;1.28;82.13
22649;BME280;11491;41.942;24.220;2023-04-29T04:12:05;89937.56;;;1.40;81.73
22649;BME280;11491;41.942;24.220;2023-04-29T04:14:33;89943.34;;;1.42;81.10
22649;BME280;11491;41.942;24.220;2023-04-29T04:17:00;89932.22;;;1.45;81.40
22649;BME280;11491;41.942;24.220;2023-04-29T04:19:27;89933.47;;;1.47;81.88
22649;BME280;11491;41.942;24.220;2023-04-29T04:21:53;89938.59;;;1.58;80.81
22649;BME280;11491;41.942;24.220;2023-04-29T04:24:20;89925.91;;;1.60;80.82
22649;BME280;11491;41.942;24.220;2023-04-29T04:26:47;89929.41;;;1.55;80.48
22649;BME280;11491;41.942;24.220;2023-04-29T04:29:14;89929.81;;;1.29;80.78
22649;BME280;11491;41.942;24.220;2023-04-29T04:31:42;89932.28;;;1.40;81.64
22649;BME280;11491;41.942;24.220;2023-04-29T04:34:09;89931.75;;;1.57;81.59
22649;BME280;11491;41.942;24.220;2023-04-29T04:36:36;89928.47;;;1.65;81.10
22649;BME280;11491;41.942;24.220;2023-04-29T04:39:03;89930.25;;;1.69;81.16
22649;BME280;11491;41.942;24.220;2023-04-29T04:41:30;89924.56;;;1.76;80.92
22649;BME280;11491;41.942;24.220;2023-04-29T04:43:57;89937.53;;;1.91;80.83
22649;BME280;11491;41.942;24.220;2023-04-29T04:46:23;89935.66;;;2.06;80.91
22649;BME280;11491;41.942;24.220;2023-04-29T04:48:51;89945.34;;;2.10;80.46
22649;BME280;11491;41.942;24.220;2023-04-29T04:51:18;89952.72;;;2.27;80.08
22649;BME280;11491;41.942;24.220;2023-04-29T04:53:45;89941.47;;;2.35;79.79
22649;BME280;11491;41.942;24.220;2023-04-29T04:56:12;89952.22;;;2.53;79.89
22649;BME280;11491;41.942;24.220;2023-04-29T04:58:39;89943.72;;;2.84;79.18
22649;BME280;11491;41.942;24.220;2023-04-29T05:01:05;89940.38;;;3.06;78.95
22649;BME280;11491;41.942;24.220;2023-04-29T05:03:32;89938.50;;;3.06;79.23
22649;BME280;11491;41.942;24.220;2023-04-29T05:06:00;89930.25;;;3.21;78.13
22649;BME280;11491;41.942;24.220;2023-04-29T05:08:27;89941.34;;;3.32;77.99
22649;BME280;11491;41.942;24.220;2023-04-29T05:10:53;89941.94;;;3.43;77.11
22649;BME280;11491;41.942;24.220;2023-04-29T05:13:21;89930.16;;;3.49;77.43
22649;BME280;11491;41.942;24.220;2023-04-29T05:15:47;89922.94;;;3.63;77.14
22649;BME280;11491;41.942;24.220;2023-04-29T05:18:14;89925.84;;;3.76;77.04
22649;BME280;11491;41.942;24.220;2023-04-29T05:20:41;89923.91;;;3.90;76.97
22649;BME280;11491;41.942;24.220;2023-04-29T05:23:09;89912.63;;;4.07;75.91
22649;BME280;11491;41.942;24.220;2023-04-29T05:25:36;89920.84;;;4.37;75.07
22649;BME280;11491;41.942;24.220;2023-04-29T05:28:03;89917.28;;;4.32;75.23
22649;BME280;11491;41.942;24.220;2023-04-29T05:30:30;89919.19;;;4.49;75.40
22649;BME280;11491;41.942;24.220;2023-04-29T05:32:56;89915.81;;;4.58;74.99
22649;BME280;11491;41.942;24.220;2023-04-29T05:35:23;89914.81;;;4.85;74.34
22649;BME280;11491;41.942;24.220;2023-04-29T05:37:50;89912.19;;;5.11;72.61
22649;BME280;11491;41.942;24.220;2023-04-29T05:40:18;89914.41;;;5.26;72.48
22649;BME280;11491;41.942;24.220;2023-04-29T05:42:47;89908.19;;;5.39;71.76
22649;BME280;11491;41.942;24.220;2023-04-29T05:45:14;89905.69;;;5.52;71.48
22649;BME280;11491;41.942;24.220;2023-04-29T05:47:41;89898.66;;;5.65;70.39
22649;BME280;11491;41.942;24.220;2023-04-29T05:50:08;89896.47;;;5.75;71.03
22649;BME280;11491;41.942;24.220;2023-04-29T05:52:35;89887.69;;;6.01;70.65
22649;BME280;11491;41.942;24.220;2023-04-29T05:55:03;89880.28;;;6.33;70.07
22649;BME280;11491;41.942;24.220;2023-04-29T05:57:31;89882.16;;;6.71;68.40
22649;BME280;11491;41.942;24.220;2023-04-29T05:59:58;89888.88;;;7.06;67.68
22649;BME280;11491;41.942;24.220;2023-04-29T06:02:25;89885.63;;;7.43;64.78
22649;BME280;11491;41.942;24.220;2023-04-29T06:04:51;89890.31;;;7.67;64.50
22649;BME280;11491;41.942;24.220;2023-04-29T06:07:18;89863.31;;;7.77;64.04
22649;BME280;11491;41.942;24.220;2023-04-29T06:09:45;89896.53;;;8.25;63.57
22649;BME280;11491;41.942;24.220;2023-04-29T06:12:12;89883.88;;;8.55;62.56
22649;BME280;11491;41.942;24.220;2023-04-29T06:14:40;89883.66;;;8.73;63.81
22649;BME280;11491;41.942;24.220;2023-04-29T06:17:07;89886.88;;;8.78;62.64
22649;BME280;11491;41.942;24.220;2023-04-29T06:19:34;89878.34;;;8.97;59.45
22649;BME280;11491;41.942;24.220;2023-04-29T06:22:00;89875.09;;;9.16;59.59
22649;BME280;11491;41.942;24.220;2023-04-29T06:24:27;89879.09;;;9.22;59.64
22649;BME280;11491;41.942;24.220;2023-04-29T06:26:54;89873.31;;;9.20;58.69
22649;BME280;11491;41.942;24.220;2023-04-29T06:29:20;89856.41;;;9.28;56.54
22649;BME280;11491;41.942;24.220;2023-04-29T06:31:49;89841.59;;;9.43;56.13
22649;BME280;11491;41.942;24.220;2023-04-29T06:34:15;89846.31;;;9.75;53.12
22649;BME280;11491;41.942;24.220;2023-04-29T06:36:42;89847.66;;;9.97;51.47
22649;BME280;11491;41.942;24.220;2023-04-29T06:39:09;89854.44;;;10.22;48.41
22649;BME280;11491;41.942;24.220;2023-04-29T06:41:35;89845.00;;;10.41;47.69
22649;BME280;11491;41.942;24.220;2023-04-29T06:44:02;89849.44;;;10.49;41.69
22649;BME280;11491;41.942;24.220;2023-04-29T06:46:29;89842.03;;;10.74;39.95
22649;BME280;11491;41.942;24.220;2023-04-29T06:48:57;89841.22;;;11.05;40.22
22649;BME280;11491;41.942;24.220;2023-04-29T06:51:24;89841.78;;;11.30;40.70
22649;BME280;11491;41.942;24.220;2023-04-29T06:53:52;89838.38;;;11.49;41.45
22649;BME280;11491;41.942;24.220;2023-04-29T06:56:19;89833.41;;;11.67;41.39
22649;BME280;11491;41.942;24.220;2023-04-29T06:58:46;89831.72;;;11.59;45.17
22649;BME280;11491;41.942;24.220;2023-04-29T07:01:12;89838.69;;;11.63;42.28
22649;BME280;11491;41.942;24.220;2023-04-29T07:03:39;89804.22;;;11.81;42.83
22649;BME280;11491;41.942;24.220;2023-04-29T07:06:07;89825.69;;;12.20;42.63
22649;BME280;11491;41.942;24.220;2023-04-29T07:08:34;89825.66;;;12.40;40.38
22649;BME280;11491;41.942;24.220;2023-04-29T07:11:01;89826.06;;;12.42;38.09
22649;BME280;11491;41.942;24.220;2023-04-29T07:13:28;89825.13;;;12.11;39.56
22649;BME280;11491;41.942;24.220;2023-04-29T07:15:55;89829.59;;;11.68;39.27
22649;BME280;11491;41.942;24.220;2023-04-29T07:18:22;89831.81;;;11.47;39.11
22649;BME280;11491;41.942;24.220;2023-04-29T07:20:49;89821.78;;;11.24;39.91
22649;BME280;11491;41.942;24.220;2023-04-29T07:23:18;89821.06;;;11.27;40.84
22649;BME280;11491;41.942;24.220;2023-04-29T07:25:45;89800.06;;;11.10;40.55
22649;BME280;11491;41.942;24.220;2023-04-29T07:28:11;89825.69;;;11.11;39.15
22649;BME280;11491;41.942;24.220;2023-04-29T07:30:38;89824.88;;;11.26;38.57
22649;BME280;11491;41.942;24.220;2023-04-29T07:33:06;89835.16;;;11.24;40.55
22649;BME280;11491;41.942;24.220;2023-04-29T07:35:32;89828.00;;;11.12;39.79
22649;BME280;11491;41.942;24.220;2023-04-29T07:37:59;89823.69;;;11.08;39.23
22649;BME280;11491;41.942;24.220;2023-04-29T07:40:27;89823.41;;;10.93;39.49
22649;BME280;11491;41.942;24.220;2023-04-29T07:42:54;89828.81;;;10.97;38.73
22649;BME280;11491;41.942;24.220;2023-04-29T07:45:21;89816.66;;;10.84;39.88
22649;BME280;11491;41.942;24.220;2023-04-29T07:47:47;89829.03;;;11.08;40.55
22649;BME280;11491;41.942;24.220;2023-04-29T07:50:14;89833.91;;;11.37;40.21
22649;BME280;11491;41.942;24.220;2023-04-29T07:52:41;89824.41;;;11.75;44.90
22649;BME280;11491;41.942;24.220;2023-04-29T07:55:08;89834.34;;;12.14;53.32
22649;BME280;11491;41.942;24.220;2023-04-29T07:57:36;89840.19;;;12.39;49.81
22649;BME280;11491;41.942;24.220;2023-04-29T08:00:04;89817.16;;;12.57;50.82
22649;BME280;11491;41.942;24.220;2023-04-29T08:02:31;89827.63;;;12.89;51.26
22649;BME280;11491;41.942;24.220;2023-04-29T08:04:58;89824.06;;;13.04;51.31
22649;BME280;11491;41.942;24.220;2023-04-29T08:07:25;89816.69;;;13.24;46.76
22649;BME280;11491;41.942;24.220;2023-04-29T08:09:52;89827.34;;;13.44;47.27
22649;BME280;11491;41.942;24.220;2023-04-29T08:12:18;89821.38;;;13.54;47.97
22649;BME280;11491;41.942;24.220;2023-04-29T08:14:46;89819.31;;;13.74;49.36
22649;BME280;11491;41.942;24.220;2023-04-29T08:17:13;89817.31;;;13.97;50.20
22649;BME280;11491;41.942;24.220;2023-04-29T08:19:40;89822.03;;;14.08;46.83
22649;BME280;11491;41.942;24.220;2023-04-29T08:22:06;89819.75;;;14.10;46.59
22649;BME280;11491;41.942;24.220;2023-04-29T08:24:35;89819.00;;;14.09;48.02
22649;BME280;11491;41.942;24.220;2023-04-29T08:27:02;89812.31;;;14.33;50.19
22649;BME280;11491;41.942;24.220;2023-04-29T08:29:30;89817.88;;;14.48;47.31
22649;BME280;11491;41.942;24.220;2023-04-29T08:31:59;89819.56;;;14.63;48.41
22649;BME280;11491;41.942;24.220;2023-04-29T08:34:26;89818.97;;;14.80;44.58
22649;BME280;11491;41.942;24.220;2023-04-29T08:36:53;89818.00;;;15.03;45.92
22649;BME280;11491;41.942;24.220;2023-04-29T08:39:19;89827.78;;;15.18;45.96
22649;BME280;11491;41.942;24.220;2023-04-29T08:41:46;89819.28;;;15.16;39.77
22649;BME280;11491;41.942;24.220;2023-04-29T08:44:16;89827.72;;;15.11;44.31
22649;BME280;11491;41.942;24.220;2023-04-29T08:46:43;89825.38;;;15.06;41.50
22649;BME280;11491;41.942;24.220;2023-04-29T08:49:12;89823.09;;;15.12;45.28
22649;BME280;11491;41.942;24.220;2023-04-29T08:51:39;89816.19;;;15.11;43.97
22649;BME280;11491;41.942;24.220;2023-04-29T08:54:06;89808.13;;;15.18;43.30
22649;BME280;11491;41.942;24.220;2023-04-29T08:56:33;89811.81;;;15.47;44.09
22649;BME280;11491;41.942;24.220;2023-04-29T08:59:01;89814.09;;;15.45;43.02
22649;BME280;11491;41.942;24.220;2023-04-29T09:01:29;89818.91;;;15.69;45.89
22649;BME280;11491;41.942;24.220;2023-04-29T09:04:14;89815.63;;;15.98;45.46
22649;BME280;11491;41.942;24.220;2023-04-29T09:06:48;89812.44;;;15.85;41.58
22649;BME280;11491;41.942;24.220;2023-04-29T09:09:16;89810.63;;;16.03;43.90
22649;BME280;11491;41.942;24.220;2023-04-29T09:11:43;89816.47;;;16.16;44.06
22649;BME280;11491;41.942;24.220;2023-04-29T09:14:10;89811.53;;;16.40;42.04
22649;BME280;11491;41.942;24.220;2023-04-29T09:16:37;89807.28;;;16.35;41.78
22649;BME280;11491;41.942;24.220;2023-04-29T09:19:04;89791.50;;;16.44;40.98
22649;BME280;11491;41.942;24.220;2023-04-29T09:21:31;89796.66;;;16.99;38.98
22649;BME280;11491;41.942;24.220;2023-04-29T09:24:00;89800.88;;;17.51;37.00
22649;BME280;11491;41.942;24.220;2023-04-29T09:26:35;89782.38;;;17.46;38.18
22649;BME280;11491;41.942;24.220;2023-04-29T09:29:07;89783.91;;;17.64;35.96
22649;BME280;11491;41.942;24.220;2023-04-29T09:31:36;89784.66;;;17.72;36.99
22649;BME280;11491;41.942;24.220;2023-04-29T09:34:03;89776.16;;;17.63;35.93
22649;BME280;11491;41.942;24.220;2023-04-29T09:36:40;89770.00;;;17.62;37.51
22649;BME280;11491;41.942;24.220;2023-04-29T09:39:11;89764.63;;;17.59;35.22
22649;BME280;11491;41.942;24.220;2023-04-29T09:41:40;89770.38;;;17.54;37.33
22649;BME280;11491;41.942;24.220;2023-04-29T09:44:08;89761.53;;;17.50;38.00
22649;BME280;11491;41.942;24.220;2023-04-29T09:46:35;89772.28;;;17.71;39.29
22649;BME280;11491;41.942;24.220;2023-04-29T09:49:03;89759.63;;;17.04;34.99
22649;BME280;11491;41.942;24.220;2023-04-29T09:51:30;89757.66;;;16.65;40.48
22649;BME280;11491;41.942;24.220;2023-04-29T09:53:59;89772.28;;;16.64;39.16
22649;BME280;11491;41.942;24.220;2023-04-29T09:56:47;89774.56;;;16.47;39.50
22649;BME280;11491;41.942;24.220;2023-04-29T09:59:14;89772.97;;;16.32;38.93
22649;BME280;11491;41.942;24.220;2023-04-29T10:01:41;89776.06;;;16.34;42.27
22649;BME280;11491;41.942;24.220;2023-04-29T10:04:10;89773.69;;;16.14;39.80
22649;BME280;11491;41.942;24.220;2023-04-29T10:06:39;89758.91;;;15.73;41.38
22649;BME280;11491;41.942;24.220;2023-04-29T10:09:07;89758.34;;;15.49;41.77
22649;BME280;11491;41.942;24.220;2023-04-29T10:11:39;89757.97;;;15.54;43.24
22649;BME280;11491;41.942;24.220;2023-04-29T10:14:06;89763.38;;;15.54;44.38
22649;BME280;11491;41.942;24.220;2023-04-29T10:16:44;89756.50;;;15.67;42.42
22649;BME280;11491;41.942;24.220;2023-04-29T10:19:11;89757.38;;;15.79;43.23
22649;BME280;11491;41.942;24.220;2023-04-29T10:21:40;89754.31;;;15.87;42.21
22649;BME280;11491;41.942;24.220;2023-04-29T10:24:09;89752.47;;;16.09;38.62
22649;BME280;11491;41.942;24.220;2023-04-29T10:26:41;89749.84;;;16.24;40.38
22649;BME280;11491;41.942;24.220;2023-04-29T10:29:10;89755.22;;;16.24;41.64
22649;BME280;11491;41.942;24.220;2023-04-29T10:31:40;89741.44;;;16.57;40.68
22649;BME280;11491;41.942;24.220;2023-04-29T10:34:08;89747.63;;;16.72;41.41
22649;BME280;11491;41.942;24.220;2023-04-29T10:36:36;89747.59;;;16.62;38.47
22649;BME280;11491;41.942;24.220;2023-04-29T10:39:04;89749.53;;;16.65;37.66
22649;BME280;11491;41.942;24.220;2023-04-29T10:41:38;89746.44;;;16.45;40.42
22649;BME280;11491;41.942;24.220;2023-04-29T10:44:11;89743.34;;;16.53;39.36
22649;BME280;11491;41.942;24.220;2023-04-29T10:46:38;89751.47;;;16.68;40.31
22649;BME280;11491;41.942;24.220;2023-04-29T10:49:06;89746.84;;;16.75;39.89
22649;BME280;11491;41.942;24.220;2023-04-29T10:51:33;89752.28;;;16.86;37.06
22649;BME280;11491;41.942;24.220;2023-04-29T10:54:02;89754.59;;;16.84;38.66
22649;BME280;11491;41.942;24.220;2023-04-29T10:56:40;89749.22;;;17.06;39.33
22649;BME280;11491;41.942;24.220;2023-04-29T10:59:13;89752.25;;;17.51;38.92
22649;BME280;11491;41.942;24.220;2023-04-29T11:01:45;89719.84;;;17.36;35.90
22649;BME280;11491;41.942;24.220;2023-04-29T11:04:12;89736.09;;;17.29;35.00
22649;BME280;11491;41.942;24.220;2023-04-29T11:06:42;89745.72;;;17.37;37.42
22649;BME280;11491;41.942;24.220;2023-04-29T11:09:12;89743.81;;;17.27;38.43
22649;BME280;11491;41.942;24.220;2023-04-29T11:11:43;89735.31;;;17.32;37.17
22649;BME280;11491;41.942;24.220;2023-04-29T11:14:12;89739.19;;;17.03;36.79
22649;BME280;11491;41.942;24.220;2023-04-29T11:16:46;89736.09;;;17.22;37.76
22649;BME280;11491;41.942;24.220;2023-04-29T11:19:15;89733.78;;;17.17;36.54
22649;BME280;11491;41.942;24.220;2023-04-29T11:21:44;89733.78;;;17.03;36.25
22649;BME280;11491;41.942;24.220;2023-04-29T11:24:12;89740.72;;;16.96;36.11
22649;BME280;11491;41.942;24.220;2023-04-29T11:26:41;89737.97;;;16.68;36.42
22649;BME280;11491;41.942;24.220;2023-04-29T11:29:09;89733.78;;;16.88;35.04
22649;BME280;11491;41.942;24.220;2023-04-29T11:31:37;89737.25;;;16.85;34.59
22649;BME280;11491;41.942;24.220;2023-04-29T11:34:04;89737.25;;;16.89;38.63
22649;BME280;11491;41.942;24.220;2023-04-29T11:36:31;89732.63;;;17.04;37.50
22649;BME280;11491;41.942;24.220;2023-04-29T11:38:59;89729.88;;;17.43;38.92
22649;BME280;11491;41.942;24.220;2023-04-29T11:41:26;89733.63;;;17.96;37.36
22649;BME280;11491;41.942;24.220;2023-04-29T11:43:54;89729.63;;;18.25;37.93
22649;BME280;11491;41.942;24.220;2023-04-29T11:46:22;89726.81;;;18.47;34.26
22649;BME280;11491;41.942;24.220;2023-04-29T11:48:50;89732.06;;;18.02;32.61
22649;BME280;11491;41.942;24.220;2023-04-29T11:51:17;89737.19;;;17.53;32.41
22649;BME280;11491;41.942;24.220;2023-04-29T11:53:45;89732.59;;;16.96;33.76
22649;BME280;11491;41.942;24.220;2023-04-29T11:56:12;89726.38;;;16.49;31.87
22649;BME280;11491;41.942;24.220;2023-04-29T11:58:40;89729.25;;;15.80;32.52
22649;BME280;11491;41.942;24.220;2023-04-29T12:01:07;89738.31;;;15.50;36.32
22649;BME280;11491;41.942;24.220;2023-04-29T12:03:34;89733.22;;;15.31;35.12
22649;BME280;11491;41.942;24.220;2023-04-29T12:06:02;89741.69;;;15.33;33.09
22649;BME280;11491;41.942;24.220;2023-04-29T12:08:29;89731.66;;;15.26;35.27
22649;BME280;11491;41.942;24.220;2023-04-29T12:10:58;89716.13;;;15.05;35.77
22649;BME280;11491;41.942;24.220;2023-04-29T12:13:27;89719.56;;;15.02;36.58
22649;BME280;11491;41.942;24.220;2023-04-29T12:15:55;89719.31;;;15.21;36.80
22649;BME280;11491;41.942;24.220;2023-04-29T12:18:22;89722.06;;;15.28;35.32
22649;BME280;11491;41.942;24.220;2023-04-29T12:20:49;89711.94;;;15.11;35.22
22649;BME280;11491;41.942;24.220;2023-04-29T12:23:20;89681.38;;;14.85;36.06
22649;BME280;11491;41.942;24.220;2023-04-29T12:25:49;89715.00;;;15.06;35.90
22649;BME280;11491;41.942;24.220;2023-04-29T12:28:16;89715.50;;;15.29;35.58
22649;BME280;11491;41.942;24.220;2023-04-29T12:30:44;89709.44;;;15.43;35.46
22649;BME280;11491;41.942;24.220;2023-04-29T12:33:17;89697.16;;;15.46;33.58
22649;BME280;11491;41.942;24.220;2023-04-29T12:35:44;89701.72;;;15.42;35.78
22649;BME280;11491;41.942;24.220;2023-04-29T12:38:15;89704.88;;;15.55;36.50
22649;BME280;11491;41.942;24.220;2023-04-29T12:40:44;89708.81;;;15.71;34.23
22649;BME280;11491;41.942;24.220;2023-04-29T12:43:11;89708.06;;;15.75;33.08
22649;BME280;11491;41.942;24.220;2023-04-29T12:45:38;89706.16;;;15.79;33.69
22649;BME280;11491;41.942;24.220;2023-04-29T12:48:05;89700.47;;;15.98;32.48
22649;BME280;11491;41.942;24.220;2023-04-29T12:50:33;89693.56;;;16.19;34.60
22649;BME280;11491;41.942;24.220;2023-04-29T12:53:01;89694.38;;;16.44;33.60
22649;BME280;11491;41.942;24.220;2023-04-29T12:55:28;89692.09;;;16.64;34.70
22649;BME280;11491;41.942;24.220;2023-04-29T12:57:56;89687.47;;;16.57;31.87
22649;BME280;11491;41.942;24.220;2023-04-29T13:00:23;89682.03;;;16.36;33.15